Time;durP1;ratioP1;P1;durP2;ratioP2;P2;SDS_P1;SDS_P2;PMS_P1;PMS_P2;Temp;Humidity;BMP_temperature;BMP_pressure;BME280_temperature;BME280_humidity;BME280_pressure;Samples;Min_cycle;Max_cycle;Signal;HPM_P1;HPM_P2
2023/07/24 00:03:13;;;;;;;5.68;3.12;;;17.50;99.90;;;;;;7293131;32;20328;-57
2023/07/24 00:07:15;;;;;;;5.53;3.17;;;17.50;99.90;;;;;;7295840;32;20107;-56
2023/07/24 00:11:17;;;;;;;4.20;3.42;;;17.50;99.90;;;;;;7280818;32;20137;-57
2023/07/24 00:15:19;;;;;;;4.82;3.28;;;17.60;99.90;;;;;;7284307;32;20116;-58
2023/07/24 00:19:20;;;;;;;5.47;3.42;;;17.60;99.90;;;;;;7279620;32;20613;-57
2023/07/24 00:23:22;;;;;;;5.65;3.03;;;17.50;99.90;;;;;;7291972;32;20151;-56
2023/07/24 00:27:24;;;;;;;4.43;3.30;;;17.30;99.90;;;;;;7290340;32;20260;-57
2023/07/24 00:31:26;;;;;;;6.05;2.78;;;17.30;99.90;;;;;;7297436;32;20138;-57
2023/07/24 00:35:28;;;;;;;5.10;3.10;;;17.20;99.90;;;;;;7281433;32;20112;-58
2023/07/24 00:39:29;;;;;;;8.27;3.58;;;17.20;99.90;;;;;;7297961;32;20111;-58
2023/07/24 00:43:31;;;;;;;6.97;3.42;;;17.10;99.90;;;;;;7292197;32;20529;-57
2023/07/24 00:47:33;;;;;;;5.05;3.30;;;17.10;99.90;;;;;;7279398;32;20496;-56
2023/07/24 00:51:35;;;;;;;6.65;3.53;;;17.10;99.90;;;;;;7283463;32;20262;-56
2023/07/24 00:55:37;;;;;;;4.25;3.37;;;17.10;99.90;;;;;;7283702;32;20462;-57
2023/07/24 00:59:39;;;;;;;8.68;3.62;;;17.10;99.90;;;;;;7279233;32;20139;-58
2023/07/24 01:03:43;;;;;;;6.07;3.58;;;17.30;99.90;;;;;;7284180;32;20155;-56
2023/07/24 01:07:45;;;;;;;4.62;3.60;;;17.10;99.90;;;;;;7278678;32;20124;-56
2023/07/24 01:12:08;;;;;;;4.15;3.62;;;17.20;99.90;;;;;;7282305;32;20107;-58
2023/07/24 01:16:18;;;;;;;7.30;3.55;;;17.20;99.90;;;;;;7285344;32;20219;-57
2023/07/24 01:20:21;;;;;;;4.72;3.25;;;17.20;99.90;;;;;;7283382;32;20096;-57
2023/07/24 01:24:46;;;;;;;4.93;3.28;;;17.20;99.90;;;;;;7286041;32;20108;-56
2023/07/24 01:28:48;;;;;;;6.62;3.58;;;17.20;99.90;;;;;;7292593;32;20096;-56
2023/07/24 01:32:50;;;;;;;7.25;3.33;;;17.20;99.90;;;;;;7292630;32;20203;-57
2023/07/24 01:36:52;;;;;;;5.30;3.37;;;17.20;99.90;;;;;;7295897;32;20548;-57
2023/07/24 01:40:54;;;;;;;9.15;3.72;;;17.20;99.90;;;;;;7294902;32;20165;-56
2023/07/24 01:44:56;;;;;;;4.07;3.53;;;17.10;99.90;;;;;;7284636;32;20566;-57
2023/07/24 01:48:58;;;;;;;7.70;4.07;;;17.10;99.90;;;;;;7286848;32;20489;-56
2023/07/24 01:53:00;;;;;;;6.10;3.92;;;17.10;99.90;;;;;;7295482;32;21134;-57
2023/07/24 01:57:01;;;;;;;5.57;4.30;;;17.10;99.90;;;;;;7306450;32;20161;-57
2023/07/24 02:01:03;;;;;;;7.37;4.62;;;17.10;99.90;;;;;;7297427;32;20130;-56
2023/07/24 02:05:05;;;;;;;8.50;4.95;;;17.10;99.90;;;;;;7271409;32;20226;-57
2023/07/24 02:09:07;;;;;;;6.10;5.03;;;17.10;99.90;;;;;;7299595;32;20826;-56
2023/07/24 02:13:09;;;;;;;7.25;4.22;;;17.00;99.90;;;;;;7300834;32;20574;-56
2023/07/24 02:17:10;;;;;;;6.10;4.90;;;17.10;99.90;;;;;;7290298;32;20729;-57
2023/07/24 02:21:12;;;;;;;12.50;5.57;;;17.10;99.90;;;;;;7283561;32;20242;-57
2023/07/24 02:25:14;;;;;;;9.77;4.43;;;17.10;99.90;;;;;;7293178;32;20100;-57
2023/07/24 02:29:16;;;;;;;6.87;5.05;;;17.10;99.90;;;;;;7293865;32;20157;-56
2023/07/24 02:33:17;;;;;;;8.88;5.20;;;17.10;99.90;;;;;;7290156;32;20112;-56
2023/07/24 02:37:19;;;;;;;11.63;4.62;;;17.10;99.90;;;;;;7288352;32;20115;-57
2023/07/24 02:41:21;;;;;;;8.65;4.78;;;17.10;99.90;;;;;;7281322;32;20251;-57
2023/07/24 02:45:23;;;;;;;10.13;4.95;;;17.20;99.90;;;;;;7281072;32;20542;-56
2023/07/24 02:49:24;;;;;;;6.75;4.50;;;17.20;99.90;;;;;;7287057;32;20198;-57
2023/07/24 02:53:26;;;;;;;9.05;5.35;;;17.20;99.90;;;;;;7281373;32;20127;-57
2023/07/24 02:57:28;;;;;;;8.40;5.07;;;17.30;99.90;;;;;;7281191;32;20165;-56
2023/07/24 03:01:29;;;;;;;9.30;4.70;;;17.30;99.90;;;;;;7290962;32;20194;-56
2023/07/24 03:05:34;;;;;;;9.40;4.90;;;17.30;99.90;;;;;;7292779;32;20175;-56
2023/07/24 03:09:36;;;;;;;12.55;5.75;;;17.30;99.90;;;;;;7286879;32;20127;-56
2023/07/24 03:13:40;;;;;;;7.93;4.95;;;17.30;99.90;;;;;;7293510;32;20695;-56
2023/07/24 03:17:42;;;;;;;6.37;4.90;;;17.30;99.90;;;;;;7285545;32;20108;-56
2023/07/24 03:21:45;;;;;;;8.05;5.40;;;17.30;99.90;;;;;;7280339;32;20659;-57
2023/07/24 03:25:47;;;;;;;7.15;4.70;;;17.20;99.90;;;;;;7289148;32;20854;-57
2023/07/24 03:29:49;;;;;;;8.57;5.10;;;17.20;99.90;;;;;;7303871;32;20180;-57
2023/07/24 03:33:50;;;;;;;7.95;5.50;;;17.20;99.90;;;;;;7283396;32;20250;-57
2023/07/24 03:37:52;;;;;;;6.97;5.03;;;17.20;99.90;;;;;;7302356;32;20739;-57
2023/07/24 03:41:54;;;;;;;7.68;5.47;;;17.20;99.90;;;;;;7290736;32;20150;-56
2023/07/24 03:45:56;;;;;;;9.70;5.20;;;17.20;99.90;;;;;;7291299;32;20501;-57
2023/07/24 03:49:57;;;;;;;7.70;5.80;;;17.20;99.90;;;;;;7299840;32;20109;-57
2023/07/24 03:53:59;;;;;;;10.30;5.60;;;17.20;99.90;;;;;;7291786;32;20091;-57
2023/07/24 03:58:01;;;;;;;7.18;5.07;;;17.20;99.90;;;;;;7309949;32;20165;-56
2023/07/24 04:02:03;;;;;;;9.02;5.60;;;17.30;99.90;;;;;;7298851;32;20100;-57
2023/07/24 04:06:04;;;;;;;7.45;5.35;;;17.20;99.90;;;;;;7326836;32;20233;-56
2023/07/24 04:10:07;;;;;;;8.60;5.68;;;17.20;99.90;;;;;;7284433;32;20131;-56
2023/07/24 04:14:09;;;;;;;9.45;5.57;;;17.20;99.90;;;;;;7296416;32;20126;-56
2023/07/24 04:18:10;;;;;;;7.97;5.25;;;17.20;99.90;;;;;;7301099;32;20608;-57
2023/07/24 04:22:12;;;;;;;10.27;5.43;;;17.20;99.90;;;;;;7286863;32;20230;-56
2023/07/24 04:26:14;;;;;;;10.77;5.15;;;17.30;99.90;;;;;;7310675;32;20112;-56
2023/07/24 04:30:16;;;;;;;10.05;5.68;;;17.30;99.90;;;;;;7299053;32;20120;-56
2023/07/24 04:34:18;;;;;;;10.43;5.75;;;17.30;99.90;;;;;;7305023;32;20104;-56
2023/07/24 04:38:20;;;;;;;9.43;5.55;;;17.30;99.90;;;;;;7296720;32;20165;-56
2023/07/24 04:42:21;;;;;;;9.25;5.62;;;17.30;99.90;;;;;;7304420;32;20173;-56
2023/07/24 04:46:23;;;;;;;9.50;5.03;;;17.30;99.90;;;;;;7285978;32;20104;-57
2023/07/24 04:50:25;;;;;;;10.60;5.50;;;17.30;99.90;;;;;;7275688;32;20211;-57
2023/07/24 04:54:28;;;;;;;7.10;5.45;;;17.30;99.90;;;;;;7281902;32;20193;-57
2023/07/24 04:58:29;;;;;;;9.77;6.05;;;17.40;99.90;;;;;;7286692;32;20123;-57
2023/07/24 05:02:31;;;;;;;9.48;5.28;;;17.30;99.90;;;;;;7294143;32;20188;-57
2023/07/24 05:06:35;;;;;;;9.65;5.70;;;17.30;99.90;;;;;;7280797;32;20126;-57
2023/07/24 05:10:37;;;;;;;6.70;5.07;;;17.30;99.90;;;;;;7292482;32;20128;-58
2023/07/24 05:14:38;;;;;;;11.05;5.87;;;17.40;99.90;;;;;;7289263;32;20135;-58
2023/07/24 05:18:40;;;;;;;9.10;5.93;;;17.50;99.90;;;;;;7293786;32;20156;-58
2023/07/24 05:22:42;;;;;;;10.05;5.12;;;17.50;99.90;;;;;;7293288;32;20517;-56
2023/07/24 05:26:43;;;;;;;8.38;6.18;;;17.50;99.90;;;;;;7281762;32;20206;-57
2023/07/24 05:30:45;;;;;;;9.10;5.25;;;17.50;99.90;;;;;;7283896;32;20104;-58
2023/07/24 05:34:47;;;;;;;12.60;6.18;;;17.60;99.90;;;;;;7286333;32;20238;-57
2023/07/24 05:38:48;;;;;;;9.77;5.32;;;17.50;99.90;;;;;;7288840;32;20443;-58
2023/07/24 05:42:50;;;;;;;10.23;5.72;;;17.50;99.90;;;;;;7296029;32;20510;-57
2023/07/24 05:46:52;;;;;;;8.82;5.50;;;17.50;99.90;;;;;;7284241;32;20538;-57
2023/07/24 05:50:53;;;;;;;8.82;5.97;;;17.50;99.90;;;;;;7291163;32;20550;-57
2023/07/24 05:54:55;;;;;;;9.30;6.10;;;17.60;99.90;;;;;;7288507;32;20223;-58
2023/07/24 05:58:57;;;;;;;8.00;5.80;;;17.50;99.90;;;;;;7289079;32;20108;-57
2023/07/24 06:02:58;;;;;;;6.82;5.32;;;17.60;99.90;;;;;;7289922;32;20122;-57
2023/07/24 06:07:00;;;;;;;13.52;6.43;;;17.80;99.90;;;;;;7283559;32;20130;-57
2023/07/24 06:11:02;;;;;;;10.48;5.70;;;17.80;99.90;;;;;;7286447;32;20142;-57
2023/07/24 06:15:04;;;;;;;8.02;5.57;;;17.90;99.90;;;;;;7303976;32;20113;-57
2023/07/24 06:19:06;;;;;;;10.88;6.50;;;18.00;99.90;;;;;;7283588;32;20773;-57
2023/07/24 06:23:08;;;;;;;7.85;5.40;;;18.00;99.90;;;;;;7287218;32;20118;-58
2023/07/24 06:27:10;;;;;;;10.48;5.62;;;18.10;99.90;;;;;;7282982;32;20112;-57
2023/07/24 06:31:11;;;;;;;10.68;5.47;;;18.40;99.90;;;;;;7296486;32;20112;-58
2023/07/24 06:35:13;;;;;;;15.20;5.30;;;18.60;99.90;;;;;;7281891;32;20506;-57
2023/07/24 06:39:15;;;;;;;6.85;4.62;;;18.70;99.90;;;;;;7289433;32;20126;-57
2023/07/24 06:43:17;;;;;;;9.57;4.47;;;18.90;99.90;;;;;;7284921;32;20093;-58
2023/07/24 06:47:19;;;;;;;6.87;4.18;;;19.00;99.90;;;;;;7282489;32;20152;-57
2023/07/24 06:51:20;;;;;;;7.60;3.95;;;19.40;99.90;;;;;;7296656;32;20565;-59
2023/07/24 06:55:22;;;;;;;6.47;3.67;;;19.80;99.90;;;;;;7287964;32;20179;-57
2023/07/24 06:59:24;;;;;;;6.90;3.80;;;20.00;99.90;;;;;;7288656;32;20100;-57
2023/07/24 07:03:26;;;;;;;5.57;3.70;;;19.80;99.90;;;;;;7286018;32;20658;-57
2023/07/24 07:07:27;;;;;;;5.55;4.12;;;19.50;99.90;;;;;;7286671;32;20116;-57
2023/07/24 07:11:29;;;;;;;5.62;3.85;;;19.30;99.90;;;;;;7283366;32;20130;-57
2023/07/24 07:15:31;;;;;;;7.05;3.90;;;19.10;99.90;;;;;;7284616;32;20109;-57
2023/07/24 07:19:33;;;;;;;6.50;3.83;;;18.90;99.90;;;;;;7284589;32;20147;-57
2023/07/24 07:23:34;;;;;;;6.80;3.58;;;18.70;99.90;;;;;;7296042;32;20131;-57
2023/07/24 07:27:36;;;;;;;6.65;3.67;;;18.70;99.90;;;;;;7289055;32;20187;-57
2023/07/24 07:31:38;;;;;;;7.70;3.67;;;18.70;99.90;;;;;;7282416;32;20185;-56
2023/07/24 07:35:40;;;;;;;7.15;3.58;;;18.60;99.90;;;;;;7283414;32;20123;-56
2023/07/24 07:39:41;;;;;;;4.78;3.47;;;18.70;99.90;;;;;;7286310;32;20214;-56
2023/07/24 07:43:43;;;;;;;7.35;3.47;;;18.80;99.90;;;;;;7282704;32;20126;-57
2023/07/24 07:47:45;;;;;;;5.55;3.20;;;18.70;99.90;;;;;;7289912;32;20375;-58
2023/07/24 07:51:47;;;;;;;6.50;3.70;;;18.80;99.90;;;;;;7286316;32;20191;-57
2023/07/24 07:55:56;;;;;;;4.57;3.03;;;18.80;99.90;;;;;;7282768;32;20250;-57
2023/07/24 07:59:58;;;;;;;5.50;3.25;;;19.00;99.90;;;;;;7285334;32;20111;-57
2023/07/24 08:04:00;;;;;;;6.53;3.30;;;19.00;99.90;;;;;;7284278;32;20262;-57
2023/07/24 08:08:01;;;;;;;4.82;3.30;;;19.20;99.90;;;;;;7284506;32;20352;-57
2023/07/24 08:12:04;;;;;;;4.68;2.92;;;19.30;99.90;;;;;;7286589;32;20243;-57
2023/07/24 08:16:19;;;;;;;5.80;3.12;;;19.30;99.90;;;;;;7279579;32;20135;-57
2023/07/24 08:20:21;;;;;;;6.35;3.12;;;19.30;99.90;;;;;;7292543;32;20147;-57
2023/07/24 08:24:22;;;;;;;6.30;3.10;;;19.30;99.90;;;;;;7281204;32;20096;-58
2023/07/24 08:28:24;;;;;;;6.85;3.30;;;19.40;99.90;;;;;;7286373;32;20104;-57
2023/07/24 08:32:26;;;;;;;5.40;2.92;;;19.60;99.90;;;;;;7283493;32;20136;-57
2023/07/24 08:36:29;;;;;;;5.12;3.00;;;19.70;99.90;;;;;;7278265;32;20100;-57
2023/07/24 08:40:31;;;;;;;6.10;2.95;;;19.90;99.90;;;;;;7287079;32;20160;-57
2023/07/24 08:44:33;;;;;;;4.22;3.03;;;19.90;99.90;;;;;;7283313;32;20142;-57
2023/07/24 08:48:39;;;;;;;4.72;2.70;;;19.80;99.90;;;;;;7282346;32;20489;-57
2023/07/24 08:52:42;;;;;;;4.72;2.55;;;19.60;99.90;;;;;;7283083;32;20196;-57
2023/07/24 08:56:48;;;;;;;4.25;2.80;;;19.50;99.90;;;;;;7284260;32;20157;-57
2023/07/24 09:00:51;;;;;;;5.22;2.83;;;19.50;99.90;;;;;;7288811;32;20108;-58
2023/07/24 09:04:53;;;;;;;4.18;2.45;;;19.60;99.90;;;;;;7284874;32;20920;-57
2023/07/24 09:08:55;;;;;;;4.90;2.78;;;19.70;99.90;;;;;;7283504;32;20383;-57
2023/07/24 09:12:56;;;;;;;4.57;2.62;;;19.60;99.90;;;;;;7285776;32;20628;-57
2023/07/24 09:17:06;;;;;;;3.70;2.20;;;19.60;99.90;;;;;;7280230;32;20584;-57
2023/07/24 09:21:12;;;;;;;4.85;2.03;;;19.40;99.90;;;;;;7289445;32;20108;-57
2023/07/24 09:25:13;;;;;;;6.78;2.15;;;19.40;99.90;;;;;;7281848;32;20119;-57
2023/07/24 09:29:16;;;;;;;4.12;2.15;;;19.40;99.90;;;;;;7278436;32;20205;-57
2023/07/24 09:33:18;;;;;;;5.45;2.08;;;19.40;99.90;;;;;;7284623;32;20157;-57
2023/07/24 09:37:38;;;;;;;4.82;2.47;;;19.40;99.90;;;;;;7284137;32;20108;-57
2023/07/24 09:41:40;;;;;;;4.45;2.80;;;19.40;99.90;;;;;;7283396;32;20099;-58
2023/07/24 09:45:44;;;;;;;4.40;2.90;;;19.30;99.90;;;;;;7288573;32;20733;-57
2023/07/24 09:49:47;;;;;;;5.22;3.55;;;19.20;99.90;;;;;;7285030;32;20199;-57
2023/07/24 09:53:52;;;;;;;5.85;3.33;;;19.30;99.90;;;;;;7285248;32;20134;-58
2023/07/24 09:57:54;;;;;;;7.62;3.50;;;19.30;99.90;;;;;;7286046;32;20169;-57
2023/07/24 10:01:56;;;;;;;6.15;3.67;;;19.50;99.90;;;;;;7285862;32;20171;-58
2023/07/24 10:05:58;;;;;;;4.43;3.20;;;19.70;99.90;;;;;;7288972;32;20112;-57
2023/07/24 10:10:01;;;;;;;4.72;3.17;;;19.90;99.90;;;;;;7290633;32;20571;-57
2023/07/24 10:14:03;;;;;;;8.68;3.17;;;20.30;99.90;;;;;;7287475;32;20123;-57
2023/07/24 10:18:07;;;;;;;4.65;3.00;;;20.60;99.90;;;;;;7282473;32;20112;-57
2023/07/24 10:22:20;;;;;;;6.68;3.12;;;20.80;99.90;;;;;;7282092;32;20155;-57
2023/07/24 10:26:26;;;;;;;5.22;2.90;;;21.00;99.90;;;;;;7280586;32;20150;-57
2023/07/24 10:30:29;;;;;;;4.28;3.25;;;20.90;99.90;;;;;;7287472;32;20119;-58
2023/07/24 10:34:37;;;;;;;3.72;2.90;;;21.00;99.90;;;;;;7282076;32;20135;-57
2023/07/24 10:38:43;;;;;;;5.80;2.92;;;21.00;99.90;;;;;;7294395;32;20560;-57
2023/07/24 10:42:44;;;;;;;5.15;2.92;;;21.00;99.90;;;;;;7282745;32;20277;-57
2023/07/24 10:46:46;;;;;;;5.25;2.67;;;20.90;99.90;;;;;;7289498;32;20103;-57
2023/07/24 10:50:49;;;;;;;4.50;2.70;;;20.70;99.90;;;;;;7287823;32;20220;-57
2023/07/24 10:54:55;;;;;;;5.18;2.97;;;20.50;99.90;;;;;;7267384;32;20131;-57
2023/07/24 10:59:01;;;;;;;3.62;2.80;;;20.20;99.90;;;;;;7288436;32;20234;-58
2023/07/24 11:03:03;;;;;;;10.43;3.15;;;19.80;99.90;;;;;;7288938;32;20156;-58
2023/07/24 11:07:05;;;;;;;5.47;3.30;;;19.70;99.90;;;;;;7280458;32;20112;-57
2023/07/24 11:11:08;;;;;;;4.60;2.83;;;19.80;99.90;;;;;;7279064;32;20195;-57
2023/07/24 11:15:11;;;;;;;4.12;2.70;;;19.90;99.90;;;;;;7287499;32;20135;-57
2023/07/24 11:19:12;;;;;;;4.47;2.40;;;19.80;99.90;;;;;;7288906;32;20116;-57
2023/07/24 11:23:15;;;;;;;5.03;3.05;;;19.70;99.90;;;;;;7280755;32;20550;-57
2023/07/24 11:27:17;;;;;;;4.90;2.45;;;19.60;99.90;;;;;;7279562;32;20663;-57
2023/07/24 11:31:21;;;;;;;3.58;2.55;;;19.50;99.90;;;;;;7286349;32;20112;-57
2023/07/24 11:35:25;;;;;;;4.00;3.33;;;19.40;99.90;;;;;;7283304;32;20103;-57
2023/07/24 11:39:27;;;;;;;10.63;3.65;;;19.10;99.90;;;;;;7273877;32;20222;-56
2023/07/24 11:43:28;;;;;;;10.95;1.30;;;19.00;99.90;;;;;;7280879;32;20112;-57
2023/07/24 11:47:30;;;;;;;3.12;0.50;;;16.90;99.90;;;;;;7281755;32;20169;-56
2023/07/24 11:51:33;;;;;;;4.75;1.00;;;16.10;99.90;;;;;;7284396;32;20577;-56
2023/07/24 11:55:36;;;;;;;3.33;0.90;;;15.70;99.90;;;;;;7285362;32;20115;-56
2023/07/24 11:59:39;;;;;;;3.42;0.80;;;15.60;99.90;;;;;;7286132;32;20151;-57
2023/07/24 12:03:41;;;;;;;5.90;1.12;;;15.50;99.90;;;;;;7281595;32;20127;-56
2023/07/24 12:07:45;;;;;;;2.10;1.25;;;15.50;99.90;;;;;;7285966;32;20322;-57
2023/07/24 12:11:48;;;;;;;2.20;1.27;;;15.40;99.90;;;;;;7292526;32;20131;-56
2023/07/24 12:15:50;;;;;;;3.42;1.40;;;15.50;99.90;;;;;;7284930;32;20513;-57
2023/07/24 12:19:52;;;;;;;4.12;1.35;;;15.50;99.90;;;;;;7281834;32;20168;-57
2023/07/24 12:23:54;;;;;;;3.70;1.40;;;15.60;99.90;;;;;;7278969;32;20122;-57
2023/07/24 12:27:56;;;;;;;3.80;1.80;;;15.80;99.90;;;;;;7283353;32;20603;-58
2023/07/24 12:31:57;;;;;;;3.05;1.80;;;15.90;99.90;;;;;;7287860;32;20620;-56
2023/07/24 12:35:59;;;;;;;5.10;1.65;;;16.00;99.90;;;;;;7278143;32;20502;-56
2023/07/24 12:40:02;;;;;;;4.18;2.03;;;16.20;99.90;;;;;;7282026;32;20549;-57
2023/07/24 12:44:04;;;;;;;3.95;2.37;;;16.50;99.90;;;;;;7287340;32;20257;-57
2023/07/24 12:48:05;;;;;;;3.90;2.12;;;16.90;99.90;;;;;;7288048;32;20166;-57
2023/07/24 12:52:07;;;;;;;6.65;2.42;;;17.70;99.90;;;;;;7282537;32;20858;-58
2023/07/24 12:56:09;;;;;;;3.05;1.45;;;18.50;99.90;;;;;;7279041;32;20104;-57
2023/07/24 13:00:11;;;;;;;2.22;1.65;;;18.80;99.90;;;;;;7286690;32;20177;-57
2023/07/24 13:04:13;;;;;;;2.10;1.20;;;19.60;99.90;;;;;;7289285;32;20113;-57
2023/07/24 13:08:15;;;;;;;2.80;1.10;;;20.20;99.90;;;;;;7280946;32;20123;-58
2023/07/24 13:12:19;;;;;;;2.90;1.40;;;20.70;99.90;;;;;;7283169;32;20115;-57
2023/07/24 13:16:22;;;;;;;2.80;1.70;;;21.10;99.90;;;;;;7294419;32;20131;-57
2023/07/24 13:20:24;;;;;;;2.83;1.83;;;21.00;99.90;;;;;;7284948;32;20161;-57
2023/07/24 13:24:26;;;;;;;2.37;1.80;;;20.90;99.90;;;;;;7281113;32;20104;-56
2023/07/24 13:28:28;;;;;;;5.18;2.00;;;20.40;99.90;;;;;;7289746;32;20202;-57
2023/07/24 13:32:30;;;;;;;5.32;2.37;;;20.10;99.90;;;;;;7289570;32;20116;-58
2023/07/24 13:36:32;;;;;;;3.75;1.83;;;20.20;99.90;;;;;;7291036;32;20108;-57
2023/07/24 13:40:35;;;;;;;3.10;1.67;;;20.40;99.90;;;;;;7285576;32;20597;-57
2023/07/24 13:44:36;;;;;;;3.10;2.25;;;21.00;99.90;;;;;;7274320;32;20142;-57
2023/07/24 13:48:38;;;;;;;4.35;2.15;;;21.10;99.90;;;;;;7281443;32;20250;-58
2023/07/24 13:52:40;;;;;;;3.97;1.90;;;21.10;99.90;;;;;;7287677;32;20143;-57
2023/07/24 13:56:42;;;;;;;4.05;2.25;;;21.20;99.90;;;;;;7289676;32;20807;-57
2023/07/24 14:00:43;;;;;;;4.12;2.22;;;21.00;99.90;;;;;;7281336;32;20262;-57
2023/07/24 14:04:45;;;;;;;2.90;2.05;;;20.90;99.90;;;;;;7280202;32;20128;-58
2023/07/24 14:08:47;;;;;;;2.83;2.00;;;20.60;99.90;;;;;;7287321;32;20564;-58
2023/07/24 14:12:48;;;;;;;3.72;2.30;;;20.60;99.90;;;;;;7283899;32;20104;-58
2023/07/24 14:16:50;;;;;;;4.97;2.28;;;20.20;99.90;;;;;;7282846;32;20265;-57
2023/07/24 14:20:55;;;;;;;3.42;1.98;;;20.00;99.90;;;;;;7286688;32;20194;-57
2023/07/24 14:24:56;;;;;;;3.55;1.80;;;19.80;99.90;;;;;;7285950;32;20521;-58
2023/07/24 14:28:58;;;;;;;3.08;1.80;;;19.80;99.90;;;;;;7289365;32;20680;-58
2023/07/24 14:33:00;;;;;;;3.33;1.80;;;19.80;99.90;;;;;;7280279;32;20112;-57
2023/07/24 14:37:02;;;;;;;1.98;1.50;;;19.60;99.90;;;;;;7284845;32;20108;-57
2023/07/24 14:41:03;;;;;;;2.40;1.90;;;19.40;99.90;;;;;;7285546;32;20153;-57
2023/07/24 14:45:06;;;;;;;6.37;2.28;;;19.30;99.90;;;;;;7285503;32;20195;-56
2023/07/24 14:49:08;;;;;;;2.83;2.10;;;19.20;99.90;;;;;;7265929;32;20160;-57
2023/07/24 14:53:09;;;;;;;3.28;2.30;;;19.50;99.90;;;;;;7293831;32;20134;-56
2023/07/24 14:57:11;;;;;;;4.03;2.05;;;20.00;99.90;;;;;;7277623;32;20140;-56
2023/07/24 15:01:28;;;;;;;4.20;2.28;;;20.20;99.90;;;;;;7280782;32;20126;-56
2023/07/24 15:05:32;;;;;;;3.35;2.25;;;20.20;99.90;;;;;;7277737;32;20100;-57
2023/07/24 15:09:34;;;;;;;4.20;1.95;;;20.30;99.90;;;;;;7282643;32;20138;-57
2023/07/24 15:13:35;;;;;;;3.42;2.05;;;20.40;99.90;;;;;;7287740;32;20127;-57
2023/07/24 15:17:37;;;;;;;1.90;1.55;;;20.60;99.90;;;;;;7280291;32;20636;-57
2023/07/24 15:21:39;;;;;;;2.47;1.40;;;20.90;99.90;;;;;;7279695;32;20198;-57
2023/07/24 15:25:41;;;;;;;2.62;2.10;;;20.70;99.90;;;;;;7290270;32;20173;-56
2023/07/24 15:29:42;;;;;;;3.58;2.00;;;20.50;99.90;;;;;;7278574;32;20124;-57
2023/07/24 15:33:44;;;;;;;2.83;1.75;;;20.00;99.90;;;;;;7277559;32;20158;-56
2023/07/24 15:37:46;;;;;;;3.65;2.12;;;20.10;99.90;;;;;;7276185;32;20548;-56
2023/07/24 15:41:48;;;;;;;3.97;1.95;;;20.20;99.90;;;;;;7277237;32;20326;-57
2023/07/24 15:45:50;;;;;;;4.07;2.47;;;20.00;99.90;;;;;;7280462;32;20130;-56
2023/07/24 15:49:52;;;;;;;3.47;2.53;;;19.70;99.90;;;;;;7279441;32;20105;-57
2023/07/24 15:53:54;;;;;;;3.58;2.10;;;19.70;99.90;;;;;;7277222;32;20195;-56
2023/07/24 15:57:55;;;;;;;3.47;2.50;;;19.60;99.90;;;;;;7281109;32;20108;-56
2023/07/24 16:01:58;;;;;;;4.47;2.50;;;19.50;99.90;;;;;;7287899;32;20176;-59
2023/07/24 16:06:00;;;;;;;7.25;2.80;;;19.50;99.90;;;;;;7287792;32;20207;-56
2023/07/24 16:10:02;;;;;;;4.45;2.67;;;19.20;99.90;;;;;;7278551;32;20555;-57
2023/07/24 16:14:04;;;;;;;4.65;3.30;;;19.00;99.90;;;;;;7289003;32;20540;-56
2023/07/24 16:18:05;;;;;;;4.50;3.28;;;18.70;99.90;;;;;;7282313;32;20136;-56
2023/07/24 16:22:07;;;;;;;3.90;3.40;;;18.60;99.90;;;;;;7280493;32;20104;-57
2023/07/24 16:26:09;;;;;;;4.68;3.67;;;18.60;99.90;;;;;;7281646;32;20164;-57
2023/07/24 16:30:11;;;;;;;4.62;3.80;;;18.50;99.90;;;;;;7277372;32;20112;-56
2023/07/24 16:34:14;;;;;;;4.97;4.53;;;18.50;99.90;;;;;;7278229;32;20136;-56
2023/07/24 16:38:15;;;;;;;5.72;4.90;;;18.40;99.90;;;;;;7281124;32;20163;-57
2023/07/24 16:42:17;;;;;;;6.80;5.50;;;18.30;99.90;;;;;;7280398;32;20108;-57
2023/07/24 16:46:19;;;;;;;5.60;4.78;;;18.20;99.90;;;;;;7280979;32;20658;-57
2023/07/24 16:50:24;;;;;;;5.32;4.43;;;17.90;99.90;;;;;;7288140;32;20105;-57
2023/07/24 16:54:26;;;;;;;4.72;4.22;;;17.70;99.90;;;;;;7270885;32;20545;-57
2023/07/24 16:58:27;;;;;;;7.55;4.70;;;17.40;99.90;;;;;;7291038;32;20134;-57
2023/07/24 17:02:31;;;;;;;7.45;3.60;;;17.20;99.90;;;;;;7288715;32;20663;-57
2023/07/24 17:06:33;;;;;;;3.78;3.20;;;16.90;99.90;;;;;;7281382;32;20142;-57
2023/07/24 17:10:45;;;;;;;4.00;3.40;;;16.70;99.90;;;;;;7283345;32;20207;-57
2023/07/24 17:14:47;;;;;;;5.20;3.53;;;16.60;99.90;;;;;;7292797;32;20120;-57
2023/07/24 17:18:54;;;;;;;6.28;2.83;;;16.50;99.90;;;;;;7293781;32;20747;-56
2023/07/24 17:22:55;;;;;;;4.13;3.30;;;16.40;99.90;;;;;;7279977;32;20127;-57
2023/07/24 17:26:57;;;;;;;3.30;2.47;;;16.30;99.90;;;;;;7294602;32;20120;-57
2023/07/24 17:30:59;;;;;;;4.37;2.65;;;16.20;99.90;;;;;;7280668;32;20143;-58
2023/07/24 17:35:01;;;;;;;2.53;2.00;;;16.20;99.90;;;;;;7286590;32;20116;-57
2023/07/24 17:39:03;;;;;;;2.50;2.00;;;16.10;99.90;;;;;;7286624;32;20129;-57
2023/07/24 17:43:04;;;;;;;5.55;2.60;;;16.10;99.90;;;;;;7280557;32;20132;-57
2023/07/24 17:47:06;;;;;;;3.85;2.28;;;16.10;99.90;;;;;;7282942;32;20127;-57
2023/07/24 17:51:08;;;;;;;2.40;2.20;;;16.10;99.90;;;;;;7285455;32;20181;-57
2023/07/24 17:55:10;;;;;;;3.05;1.98;;;16.10;99.90;;;;;;7280955;32;20199;-57
2023/07/24 17:59:11;;;;;;;5.65;2.10;;;16.10;99.90;;;;;;7284227;32;20169;-57
2023/07/24 18:03:13;;;;;;;3.45;2.28;;;16.10;99.90;;;;;;7283296;32;20131;-57
2023/07/24 18:07:15;;;;;;;3.00;2.40;;;16.10;99.90;;;;;;7287963;32;20112;-56
2023/07/24 18:11:17;;;;;;;3.35;2.42;;;16.20;99.90;;;;;;7283809;32;20105;-57
2023/07/24 18:15:19;;;;;;;2.33;2.12;;;16.20;99.90;;;;;;7287963;32;20209;-57
2023/07/24 18:19:20;;;;;;;3.90;2.47;;;16.20;99.90;;;;;;7284644;32;20112;-57
2023/07/24 18:23:22;;;;;;;4.45;2.60;;;16.10;99.90;;;;;;7283203;32;20143;-56
2023/07/24 18:27:24;;;;;;;3.55;2.62;;;16.10;99.90;;;;;;7283463;32;20563;-56
2023/07/24 18:31:29;;;;;;;6.20;3.15;;;16.10;99.90;;;;;;7285186;32;20161;-57
2023/07/24 18:35:31;;;;;;;5.90;3.08;;;16.00;99.90;;;;;;7287386;32;20427;-56
2023/07/24 18:39:33;;;;;;;5.32;2.97;;;16.00;99.90;;;;;;7286860;32;20112;-57
2023/07/24 18:43:35;;;;;;;6.22;3.47;;;15.90;99.90;;;;;;7281036;32;20107;-57
2023/07/24 18:47:37;;;;;;;4.90;3.22;;;15.90;99.90;;;;;;7288069;32;20142;-57
2023/07/24 18:51:38;;;;;;;5.18;3.90;;;15.90;99.90;;;;;;7280984;32;20158;-57
2023/07/24 18:55:41;;;;;;;4.65;3.62;;;16.00;99.90;;;;;;7281706;32;20218;-57
2023/07/24 18:59:42;;;;;;;5.72;4.22;;;15.90;99.90;;;;;;7281529;32;20135;-57
2023/07/24 19:03:44;;;;;;;8.38;4.10;;;15.90;99.90;;;;;;7279795;32;20112;-57
2023/07/24 19:07:46;;;;;;;4.82;3.95;;;15.90;99.90;;;;;;7286222;32;20186;-57
2023/07/24 19:11:48;;;;;;;6.85;4.43;;;15.90;99.90;;;;;;7279386;32;20150;-57
2023/07/24 19:15:50;;;;;;;6.62;4.50;;;15.90;99.90;;;;;;7292106;32;20142;-56
2023/07/24 19:19:51;;;;;;;5.37;4.10;;;15.90;99.90;;;;;;7286423;32;20470;-57
2023/07/24 19:23:53;;;;;;;8.18;4.62;;;15.90;99.90;;;;;;7282098;32;20652;-57
2023/07/24 19:27:55;;;;;;;7.95;4.65;;;15.90;99.90;;;;;;7277452;32;20116;-57
2023/07/24 19:31:57;;;;;;;7.47;4.50;;;15.90;99.90;;;;;;7284444;32;20103;-56
2023/07/24 19:36:00;;;;;;;7.47;4.80;;;15.80;99.90;;;;;;7285819;32;20104;-57
2023/07/24 19:40:04;;;;;;;5.37;4.18;;;15.80;99.90;;;;;;7284334;32;20150;-57
2023/07/24 19:44:05;;;;;;;8.68;5.03;;;15.70;99.90;;;;;;7282760;32;20140;-56
2023/07/24 19:48:07;;;;;;;7.90;5.87;;;15.80;99.90;;;;;;7279985;32;20581;-56
2023/07/24 19:52:09;;;;;;;9.68;5.95;;;15.80;99.90;;;;;;7281963;32;20255;-56
2023/07/24 19:56:11;;;;;;;10.02;7.12;;;15.80;99.90;;;;;;7279308;32;20476;-56
2023/07/24 20:00:13;;;;;;;8.63;7.25;;;15.90;99.90;;;;;;7289344;32;20108;-56
2023/07/24 20:04:14;;;;;;;8.80;7.53;;;15.80;99.90;;;;;;7288893;32;20132;-56
2023/07/24 20:08:16;;;;;;;14.68;8.18;;;15.90;99.90;;;;;;7286773;32;20112;-57
2023/07/24 20:12:18;;;;;;;8.98;7.82;;;15.80;99.90;;;;;;7285032;32;20187;-56
2023/07/24 20:16:20;;;;;;;10.63;8.80;;;15.80;99.90;;;;;;7290729;32;20143;-56
2023/07/24 20:20:22;;;;;;;10.73;8.48;;;15.90;99.90;;;;;;7279941;32;20131;-56
2023/07/24 20:24:23;;;;;;;8.73;7.82;;;15.90;99.90;;;;;;7283057;32;20127;-56
2023/07/24 20:28:26;;;;;;;9.48;8.57;;;15.90;99.90;;;;;;7280813;32;20096;-56
2023/07/24 20:32:29;;;;;;;10.75;8.05;;;16.00;99.90;;;;;;7281455;32;20119;-57
2023/07/24 20:36:31;;;;;;;12.40;8.98;;;16.00;99.90;;;;;;7283192;32;20202;-56
2023/07/24 20:40:33;;;;;;;10.00;8.23;;;16.10;99.90;;;;;;7286730;32;20119;-55
2023/07/24 20:44:35;;;;;;;14.45;9.70;;;16.10;99.90;;;;;;7252237;32;20108;-57
2023/07/24 20:48:37;;;;;;;14.85;8.80;;;16.10;99.90;;;;;;7252935;32;20166;-58
2023/07/24 20:52:39;;;;;;;14.27;7.72;;;16.10;99.90;;;;;;7282296;32;20487;-56
2023/07/24 20:56:41;;;;;;;6.15;5.55;;;16.00;99.90;;;;;;7281184;32;20199;-57
2023/07/24 21:00:43;;;;;;;10.07;4.82;;;16.00;99.90;;;;;;7282376;32;20165;-57